sensor_id;sensor_type;location;lat;lon;timestamp;P1;durP1;ratioP1;P2;durP2;ratioP2
26598;SDS011;14240;51.064;16.612;2022-08-19T00:01:17;21.08;;;12.93;;
26598;SDS011;14240;51.064;16.612;2022-08-19T00:03:43;23.58;;;14.45;;
26598;SDS011;14240;51.064;16.612;2022-08-19T00:06:08;22.38;;;14.88;;
26598;SDS011;14240;51.064;16.612;2022-08-19T00:08:35;21.45;;;13.40;;
26598;SDS011;14240;51.064;16.612;2022-08-19T00:11:01;20.40;;;14.32;;
26598;SDS011;14240;51.064;16.612;2022-08-19T00:13:26;17.73;;;13.93;;
26598;SDS011;14240;51.064;16.612;2022-08-19T00:15:53;20.93;;;14.40;;
26598;SDS011;14240;51.064;16.612;2022-08-19T00:18:19;17.48;;;13.40;;
26598;SDS011;14240;51.064;16.612;2022-08-19T00:20:45;16.05;;;13.05;;
26598;SDS011;14240;51.064;16.612;2022-08-19T00:23:11;19.40;;;13.05;;
26598;SDS011;14240;51.064;16.612;2022-08-19T00:25:37;20.38;;;13.85;;
26598;SDS011;14240;51.064;16.612;2022-08-19T00:28:03;18.58;;;13.43;;
26598;SDS011;14240;51.064;16.612;2022-08-19T00:30:29;19.67;;;13.03;;
26598;SDS011;14240;51.064;16.612;2022-08-19T00:32:55;18.00;;;13.75;;
26598;SDS011;14240;51.064;16.612;2022-08-19T00:35:22;19.27;;;13.30;;
26598;SDS011;14240;51.064;16.612;2022-08-19T00:37:48;18.98;;;13.75;;
26598;SDS011;14240;51.064;16.612;2022-08-19T00:40:16;21.15;;;13.18;;
26598;SDS011;14240;51.064;16.612;2022-08-19T00:42:43;22.40;;;12.70;;
26598;SDS011;14240;51.064;16.612;2022-08-19T00:45:14;19.42;;;13.85;;
26598;SDS011;14240;51.064;16.612;2022-08-19T00:47:43;19.35;;;13.75;;
26598;SDS011;14240;51.064;16.612;2022-08-19T00:50:10;19.52;;;13.85;;
26598;SDS011;14240;51.064;16.612;2022-08-19T00:52:40;18.50;;;13.40;;
26598;SDS011;14240;51.064;16.612;2022-08-19T00:55:10;26.85;;;17.63;;
26598;SDS011;14240;51.064;16.612;2022-08-19T00:57:41;21.90;;;15.25;;
26598;SDS011;14240;51.064;16.612;2022-08-19T01:00:11;22.98;;;15.77;;
26598;SDS011;14240;51.064;16.612;2022-08-19T01:02:39;25.67;;;15.70;;
26598;SDS011;14240;51.064;16.612;2022-08-19T01:05:08;20.55;;;13.32;;
26598;SDS011;14240;51.064;16.612;2022-08-19T01:07:37;21.52;;;14.48;;
26598;SDS011;14240;51.064;16.612;2022-08-19T01:10:05;17.38;;;14.15;;
26598;SDS011;14240;51.064;16.612;2022-08-19T01:12:34;20.40;;;13.85;;
26598;SDS011;14240;51.064;16.612;2022-08-19T01:15:00;19.38;;;14.35;;
26598;SDS011;14240;51.064;16.612;2022-08-19T01:17:26;21.80;;;14.38;;
26598;SDS011;14240;51.064;16.612;2022-08-19T01:19:52;16.50;;;13.60;;
26598;SDS011;14240;51.064;16.612;2022-08-19T01:22:31;20.83;;;15.23;;
26598;SDS011;14240;51.064;16.612;2022-08-19T01:25:12;22.08;;;15.15;;
26598;SDS011;14240;51.064;16.612;2022-08-19T01:27:41;19.98;;;14.50;;
26598;SDS011;14240;51.064;16.612;2022-08-19T01:30:11;17.60;;;14.25;;
26598;SDS011;14240;51.064;16.612;2022-08-19T01:32:38;19.98;;;15.02;;
26598;SDS011;14240;51.064;16.612;2022-08-19T01:35:05;18.33;;;14.00;;
26598;SDS011;14240;51.064;16.612;2022-08-19T01:37:41;17.73;;;14.18;;
26598;SDS011;14240;51.064;16.612;2022-08-19T01:40:17;21.10;;;13.83;;
26598;SDS011;14240;51.064;16.612;2022-08-19T01:42:46;21.90;;;15.90;;
26598;SDS011;14240;51.064;16.612;2022-08-19T01:47:38;19.58;;;14.55;;
26598;SDS011;14240;51.064;16.612;2022-08-19T01:50:06;24.35;;;15.32;;
26598;SDS011;14240;51.064;16.612;2022-08-19T01:52:38;21.35;;;14.90;;
26598;SDS011;14240;51.064;16.612;2022-08-19T01:55:06;22.30;;;14.85;;
26598;SDS011;14240;51.064;16.612;2022-08-19T01:57:34;23.33;;;14.20;;
26598;SDS011;14240;51.064;16.612;2022-08-19T02:00:00;19.30;;;14.48;;
26598;SDS011;14240;51.064;16.612;2022-08-19T02:02:30;20.05;;;15.30;;
26598;SDS011;14240;51.064;16.612;2022-08-19T02:04:56;25.02;;;15.38;;
26598;SDS011;14240;51.064;16.612;2022-08-19T02:07:22;20.65;;;15.25;;
26598;SDS011;14240;51.064;16.612;2022-08-19T02:09:48;21.67;;;14.57;;
26598;SDS011;14240;51.064;16.612;2022-08-19T02:12:14;19.60;;;14.65;;
26598;SDS011;14240;51.064;16.612;2022-08-19T02:14:41;21.17;;;15.70;;
26598;SDS011;14240;51.064;16.612;2022-08-19T02:17:07;24.02;;;15.70;;
26598;SDS011;14240;51.064;16.612;2022-08-19T02:19:32;24.63;;;15.13;;
26598;SDS011;14240;51.064;16.612;2022-08-19T02:21:59;23.13;;;15.50;;
26598;SDS011;14240;51.064;16.612;2022-08-19T02:24:25;24.13;;;15.67;;
26598;SDS011;14240;51.064;16.612;2022-08-19T02:26:52;19.73;;;15.73;;
26598;SDS011;14240;51.064;16.612;2022-08-19T02:29:18;26.08;;;16.23;;
26598;SDS011;14240;51.064;16.612;2022-08-19T02:31:44;25.17;;;15.40;;
26598;SDS011;14240;51.064;16.612;2022-08-19T02:34:10;23.85;;;14.93;;
26598;SDS011;14240;51.064;16.612;2022-08-19T02:36:36;22.23;;;15.27;;
26598;SDS011;14240;51.064;16.612;2022-08-19T02:39:02;21.92;;;15.30;;
26598;SDS011;14240;51.064;16.612;2022-08-19T02:41:29;24.52;;;15.63;;
26598;SDS011;14240;51.064;16.612;2022-08-19T02:43:57;20.10;;;15.23;;
26598;SDS011;14240;51.064;16.612;2022-08-19T02:46:26;19.70;;;14.65;;
26598;SDS011;14240;51.064;16.612;2022-08-19T02:48:54;24.48;;;15.32;;
26598;SDS011;14240;51.064;16.612;2022-08-19T02:51:23;27.08;;;17.48;;
26598;SDS011;14240;51.064;16.612;2022-08-19T02:53:52;19.75;;;15.50;;
26598;SDS011;14240;51.064;16.612;2022-08-19T02:56:18;23.60;;;15.52;;
26598;SDS011;14240;51.064;16.612;2022-08-19T02:58:47;24.20;;;16.35;;
26598;SDS011;14240;51.064;16.612;2022-08-19T03:01:46;21.33;;;16.33;;
26598;SDS011;14240;51.064;16.612;2022-08-19T03:04:08;24.23;;;16.33;;
26598;SDS011;14240;51.064;16.612;2022-08-19T03:06:40;25.90;;;15.88;;
26598;SDS011;14240;51.064;16.612;2022-08-19T03:09:07;22.25;;;16.55;;
26598;SDS011;14240;51.064;16.612;2022-08-19T03:11:34;25.23;;;16.75;;
26598;SDS011;14240;51.064;16.612;2022-08-19T03:14:00;25.20;;;16.77;;
26598;SDS011;14240;51.064;16.612;2022-08-19T03:18:55;28.83;;;17.48;;
26598;SDS011;14240;51.064;16.612;2022-08-19T03:21:26;32.75;;;18.85;;
26598;SDS011;14240;51.064;16.612;2022-08-19T03:23:56;30.17;;;17.23;;
26598;SDS011;14240;51.064;16.612;2022-08-19T03:26:23;30.23;;;17.88;;
26598;SDS011;14240;51.064;16.612;2022-08-19T03:28:49;25.50;;;17.90;;
26598;SDS011;14240;51.064;16.612;2022-08-19T03:31:16;23.33;;;17.58;;
26598;SDS011;14240;51.064;16.612;2022-08-19T03:33:49;25.58;;;18.20;;
26598;SDS011;14240;51.064;16.612;2022-08-19T03:36:17;23.10;;;16.98;;
26598;SDS011;14240;51.064;16.612;2022-08-19T03:38:47;24.00;;;17.65;;
26598;SDS011;14240;51.064;16.612;2022-08-19T03:41:16;23.33;;;17.45;;
26598;SDS011;14240;51.064;16.612;2022-08-19T03:43:44;23.23;;;18.25;;
26598;SDS011;14240;51.064;16.612;2022-08-19T03:46:19;23.50;;;18.02;;
26598;SDS011;14240;51.064;16.612;2022-08-19T03:48:46;29.33;;;18.42;;
26598;SDS011;14240;51.064;16.612;2022-08-19T03:51:18;22.13;;;17.15;;
26598;SDS011;14240;51.064;16.612;2022-08-19T03:53:51;22.67;;;16.63;;
26598;SDS011;14240;51.064;16.612;2022-08-19T03:56:18;31.88;;;18.40;;
26598;SDS011;14240;51.064;16.612;2022-08-19T03:58:44;25.08;;;18.27;;
26598;SDS011;14240;51.064;16.612;2022-08-19T04:01:11;26.25;;;17.80;;
26598;SDS011;14240;51.064;16.612;2022-08-19T04:03:40;24.77;;;17.73;;
26598;SDS011;14240;51.064;16.612;2022-08-19T04:06:26;30.40;;;18.33;;
26598;SDS011;14240;51.064;16.612;2022-08-19T04:11:22;28.15;;;18.70;;
26598;SDS011;14240;51.064;16.612;2022-08-19T04:13:50;26.80;;;18.27;;
26598;SDS011;14240;51.064;16.612;2022-08-19T04:16:20;32.83;;;19.27;;
26598;SDS011;14240;51.064;16.612;2022-08-19T04:18:47;26.23;;;18.98;;
26598;SDS011;14240;51.064;16.612;2022-08-19T04:21:18;28.13;;;18.42;;
26598;SDS011;14240;51.064;16.612;2022-08-19T04:23:46;28.35;;;19.70;;
26598;SDS011;14240;51.064;16.612;2022-08-19T04:26:16;28.15;;;19.33;;
26598;SDS011;14240;51.064;16.612;2022-08-19T04:28:43;26.83;;;19.02;;
26598;SDS011;14240;51.064;16.612;2022-08-19T04:31:13;35.83;;;18.63;;
26598;SDS011;14240;51.064;16.612;2022-08-19T04:33:41;34.00;;;20.27;;
26598;SDS011;14240;51.064;16.612;2022-08-19T04:36:07;26.52;;;18.15;;
26598;SDS011;14240;51.064;16.612;2022-08-19T04:38:35;28.52;;;20.13;;
26598;SDS011;14240;51.064;16.612;2022-08-19T04:41:02;29.60;;;19.75;;
26598;SDS011;14240;51.064;16.612;2022-08-19T04:43:46;25.02;;;19.20;;
26598;SDS011;14240;51.064;16.612;2022-08-19T04:46:14;31.83;;;20.07;;
26598;SDS011;14240;51.064;16.612;2022-08-19T04:48:40;28.10;;;20.30;;
26598;SDS011;14240;51.064;16.612;2022-08-19T04:51:07;29.50;;;19.35;;
26598;SDS011;14240;51.064;16.612;2022-08-19T04:53:35;31.05;;;20.95;;
26598;SDS011;14240;51.064;16.612;2022-08-19T04:58:35;31.75;;;21.25;;
26598;SDS011;14240;51.064;16.612;2022-08-19T05:01:01;28.40;;;20.08;;
26598;SDS011;14240;51.064;16.612;2022-08-19T05:03:28;28.63;;;20.20;;
26598;SDS011;14240;51.064;16.612;2022-08-19T05:05:57;27.70;;;20.50;;
26598;SDS011;14240;51.064;16.612;2022-08-19T05:08:23;29.95;;;20.88;;
26598;SDS011;14240;51.064;16.612;2022-08-19T05:10:50;30.38;;;20.83;;
26598;SDS011;14240;51.064;16.612;2022-08-19T05:13:17;28.92;;;20.58;;
26598;SDS011;14240;51.064;16.612;2022-08-19T05:15:44;32.67;;;19.75;;
26598;SDS011;14240;51.064;16.612;2022-08-19T05:18:18;34.53;;;18.75;;
26598;SDS011;14240;51.064;16.612;2022-08-19T05:21:07;26.88;;;20.58;;
26598;SDS011;14240;51.064;16.612;2022-08-19T05:23:53;29.95;;;20.23;;
26598;SDS011;14240;51.064;16.612;2022-08-19T05:26:18;32.90;;;19.17;;
26598;SDS011;14240;51.064;16.612;2022-08-19T05:28:44;28.45;;;18.88;;
26598;SDS011;14240;51.064;16.612;2022-08-19T05:31:10;26.38;;;18.15;;
26598;SDS011;14240;51.064;16.612;2022-08-19T05:33:36;29.00;;;18.10;;
26598;SDS011;14240;51.064;16.612;2022-08-19T05:36:02;30.45;;;19.60;;
26598;SDS011;14240;51.064;16.612;2022-08-19T05:38:29;32.10;;;19.98;;
26598;SDS011;14240;51.064;16.612;2022-08-19T05:40:55;35.22;;;19.20;;
26598;SDS011;14240;51.064;16.612;2022-08-19T05:43:21;24.38;;;18.55;;
26598;SDS011;14240;51.064;16.612;2022-08-19T05:45:46;27.85;;;19.42;;
26598;SDS011;14240;51.064;16.612;2022-08-19T05:48:13;26.55;;;18.55;;
26598;SDS011;14240;51.064;16.612;2022-08-19T05:50:39;25.90;;;19.48;;
26598;SDS011;14240;51.064;16.612;2022-08-19T05:53:06;24.42;;;18.33;;
26598;SDS011;14240;51.064;16.612;2022-08-19T05:57:59;28.50;;;19.00;;
26598;SDS011;14240;51.064;16.612;2022-08-19T06:00:26;26.60;;;18.67;;
26598;SDS011;14240;51.064;16.612;2022-08-19T06:02:54;23.85;;;18.52;;
26598;SDS011;14240;51.064;16.612;2022-08-19T06:05:21;24.73;;;18.70;;
26598;SDS011;14240;51.064;16.612;2022-08-19T06:07:47;24.20;;;18.02;;
26598;SDS011;14240;51.064;16.612;2022-08-19T06:10:13;32.65;;;20.15;;
26598;SDS011;14240;51.064;16.612;2022-08-19T06:12:39;30.63;;;18.37;;
26598;SDS011;14240;51.064;16.612;2022-08-19T06:15:09;27.80;;;17.95;;
26598;SDS011;14240;51.064;16.612;2022-08-19T06:17:36;26.60;;;17.58;;
26598;SDS011;14240;51.064;16.612;2022-08-19T06:20:03;25.33;;;16.88;;
26598;SDS011;14240;51.064;16.612;2022-08-19T06:22:42;21.23;;;15.85;;
26598;SDS011;14240;51.064;16.612;2022-08-19T06:25:10;28.45;;;15.52;;
26598;SDS011;14240;51.064;16.612;2022-08-19T06:27:37;25.40;;;16.67;;
26598;SDS011;14240;51.064;16.612;2022-08-19T06:30:03;25.15;;;16.05;;
26598;SDS011;14240;51.064;16.612;2022-08-19T06:32:30;22.05;;;15.18;;
26598;SDS011;14240;51.064;16.612;2022-08-19T06:34:55;27.85;;;14.35;;
26598;SDS011;14240;51.064;16.612;2022-08-19T06:37:21;28.17;;;14.73;;
26598;SDS011;14240;51.064;16.612;2022-08-19T06:39:47;24.55;;;14.45;;
26598;SDS011;14240;51.064;16.612;2022-08-19T06:42:13;15.45;;;12.63;;
26598;SDS011;14240;51.064;16.612;2022-08-19T06:44:42;20.58;;;13.00;;
26598;SDS011;14240;51.064;16.612;2022-08-19T06:47:11;15.50;;;12.73;;
26598;SDS011;14240;51.064;16.612;2022-08-19T06:49:38;19.58;;;12.73;;
26598;SDS011;14240;51.064;16.612;2022-08-19T06:52:04;20.30;;;14.30;;
26598;SDS011;14240;51.064;16.612;2022-08-19T06:54:30;19.63;;;13.38;;
26598;SDS011;14240;51.064;16.612;2022-08-19T06:56:57;22.80;;;14.88;;
26598;SDS011;14240;51.064;16.612;2022-08-19T06:59:27;23.23;;;14.35;;
26598;SDS011;14240;51.064;16.612;2022-08-19T07:01:54;22.60;;;13.48;;
26598;SDS011;14240;51.064;16.612;2022-08-19T07:04:24;15.50;;;13.23;;
26598;SDS011;14240;51.064;16.612;2022-08-19T07:06:57;22.67;;;14.07;;
26598;SDS011;14240;51.064;16.612;2022-08-19T07:09:24;22.27;;;14.10;;
26598;SDS011;14240;51.064;16.612;2022-08-19T07:11:51;19.30;;;12.55;;
26598;SDS011;14240;51.064;16.612;2022-08-19T07:14:18;20.90;;;13.15;;
26598;SDS011;14240;51.064;16.612;2022-08-19T07:16:46;13.73;;;11.38;;
26598;SDS011;14240;51.064;16.612;2022-08-19T07:19:13;19.15;;;12.82;;
26598;SDS011;14240;51.064;16.612;2022-08-19T07:21:40;22.58;;;13.07;;
26598;SDS011;14240;51.064;16.612;2022-08-19T07:24:06;15.98;;;12.73;;
26598;SDS011;14240;51.064;16.612;2022-08-19T07:26:33;20.70;;;13.45;;
26598;SDS011;14240;51.064;16.612;2022-08-19T07:29:04;16.17;;;12.57;;
26598;SDS011;14240;51.064;16.612;2022-08-19T07:31:30;19.42;;;11.50;;
26598;SDS011;14240;51.064;16.612;2022-08-19T07:34:02;21.92;;;12.73;;
26598;SDS011;14240;51.064;16.612;2022-08-19T07:36:31;17.25;;;12.82;;
26598;SDS011;14240;51.064;16.612;2022-08-19T07:38:59;18.05;;;12.57;;
26598;SDS011;14240;51.064;16.612;2022-08-19T07:41:28;19.15;;;12.75;;
26598;SDS011;14240;51.064;16.612;2022-08-19T07:43:55;13.43;;;11.60;;
26598;SDS011;14240;51.064;16.612;2022-08-19T07:46:21;12.63;;;10.70;;
26598;SDS011;14240;51.064;16.612;2022-08-19T07:48:48;17.50;;;10.23;;
26598;SDS011;14240;51.064;16.612;2022-08-19T07:51:17;15.05;;;9.63;;
26598;SDS011;14240;51.064;16.612;2022-08-19T07:53:44;13.60;;;9.00;;
26598;SDS011;14240;51.064;16.612;2022-08-19T07:56:12;13.45;;;9.88;;
26598;SDS011;14240;51.064;16.612;2022-08-19T07:58:39;16.80;;;10.25;;
26598;SDS011;14240;51.064;16.612;2022-08-19T08:01:09;13.77;;;10.52;;
26598;SDS011;14240;51.064;16.612;2022-08-19T08:03:36;16.38;;;9.93;;
26598;SDS011;14240;51.064;16.612;2022-08-19T08:06:21;13.20;;;10.98;;
26598;SDS011;14240;51.064;16.612;2022-08-19T08:09:06;15.90;;;10.43;;
26598;SDS011;14240;51.064;16.612;2022-08-19T08:11:56;14.13;;;9.63;;
26598;SDS011;14240;51.064;16.612;2022-08-19T08:14:50;12.05;;;9.40;;
26598;SDS011;14240;51.064;16.612;2022-08-19T08:19:42;15.93;;;9.88;;
26598;SDS011;14240;51.064;16.612;2022-08-19T08:22:09;14.35;;;9.73;;
26598;SDS011;14240;51.064;16.612;2022-08-19T08:27:39;13.35;;;9.95;;
26598;SDS011;14240;51.064;16.612;2022-08-19T08:30:06;12.57;;;9.30;;
26598;SDS011;14240;51.064;16.612;2022-08-19T08:32:38;15.02;;;8.38;;
26598;SDS011;14240;51.064;16.612;2022-08-19T08:35:05;13.20;;;9.40;;
26598;SDS011;14240;51.064;16.612;2022-08-19T08:37:32;10.15;;;8.25;;
26598;SDS011;14240;51.064;16.612;2022-08-19T08:39:58;12.20;;;7.82;;
26598;SDS011;14240;51.064;16.612;2022-08-19T08:42:31;16.67;;;8.95;;
26598;SDS011;14240;51.064;16.612;2022-08-19T08:47:38;11.13;;;8.20;;
26598;SDS011;14240;51.064;16.612;2022-08-19T08:50:10;9.30;;;7.93;;
26598;SDS011;14240;51.064;16.612;2022-08-19T08:52:47;9.20;;;7.10;;
26598;SDS011;14240;51.064;16.612;2022-08-19T08:55:18;9.63;;;6.82;;
26598;SDS011;14240;51.064;16.612;2022-08-19T09:00:26;12.25;;;6.78;;
26598;SDS011;14240;51.064;16.612;2022-08-19T09:02:54;11.48;;;7.25;;
26598;SDS011;14240;51.064;16.612;2022-08-19T09:05:22;10.70;;;6.88;;
26598;SDS011;14240;51.064;16.612;2022-08-19T09:08:02;7.40;;;6.70;;
26598;SDS011;14240;51.064;16.612;2022-08-19T09:13:13;10.02;;;7.35;;
26598;SDS011;14240;51.064;16.612;2022-08-19T09:15:57;8.63;;;7.20;;
26598;SDS011;14240;51.064;16.612;2022-08-19T09:18:38;11.80;;;7.28;;
26598;SDS011;14240;51.064;16.612;2022-08-19T09:21:07;7.25;;;6.43;;
26598;SDS011;14240;51.064;16.612;2022-08-19T09:23:34;9.75;;;7.32;;
26598;SDS011;14240;51.064;16.612;2022-08-19T09:26:09;8.18;;;6.25;;
26598;SDS011;14240;51.064;16.612;2022-08-19T09:31:08;12.02;;;6.57;;
26598;SDS011;14240;51.064;16.612;2022-08-19T09:33:35;10.05;;;7.13;;
26598;SDS011;14240;51.064;16.612;2022-08-19T09:36:06;8.88;;;6.68;;
26598;SDS011;14240;51.064;16.612;2022-08-19T09:38:34;8.63;;;6.50;;
26598;SDS011;14240;51.064;16.612;2022-08-19T09:41:02;8.65;;;6.20;;
26598;SDS011;14240;51.064;16.612;2022-08-19T09:43:29;10.02;;;7.20;;
26598;SDS011;14240;51.064;16.612;2022-08-19T09:45:56;8.00;;;6.60;;
26598;SDS011;14240;51.064;16.612;2022-08-19T09:48:21;12.00;;;6.35;;
26598;SDS011;14240;51.064;16.612;2022-08-19T09:50:47;8.52;;;6.70;;
26598;SDS011;14240;51.064;16.612;2022-08-19T09:53:15;8.75;;;6.07;;
26598;SDS011;14240;51.064;16.612;2022-08-19T09:55:43;7.63;;;6.43;;
26598;SDS011;14240;51.064;16.612;2022-08-19T09:58:09;10.77;;;7.18;;
26598;SDS011;14240;51.064;16.612;2022-08-19T10:00:37;11.00;;;6.47;;
26598;SDS011;14240;51.064;16.612;2022-08-19T10:03:03;8.35;;;6.43;;
26598;SDS011;14240;51.064;16.612;2022-08-19T10:05:29;11.57;;;7.13;;
26598;SDS011;14240;51.064;16.612;2022-08-19T10:08:13;11.35;;;6.93;;
26598;SDS011;14240;51.064;16.612;2022-08-19T10:10:40;11.00;;;7.10;;
26598;SDS011;14240;51.064;16.612;2022-08-19T10:13:10;10.82;;;7.20;;
26598;SDS011;14240;51.064;16.612;2022-08-19T10:15:36;8.32;;;6.10;;
26598;SDS011;14240;51.064;16.612;2022-08-19T10:18:05;11.93;;;6.45;;
26598;SDS011;14240;51.064;16.612;2022-08-19T10:20:31;10.98;;;6.82;;
26598;SDS011;14240;51.064;16.612;2022-08-19T10:22:57;11.50;;;6.88;;
26598;SDS011;14240;51.064;16.612;2022-08-19T10:25:24;7.95;;;7.13;;
26598;SDS011;14240;51.064;16.612;2022-08-19T10:27:51;9.05;;;6.40;;
26598;SDS011;14240;51.064;16.612;2022-08-19T10:30:18;13.68;;;6.97;;
26598;SDS011;14240;51.064;16.612;2022-08-19T10:32:44;13.00;;;7.70;;
26598;SDS011;14240;51.064;16.612;2022-08-19T10:35:10;8.23;;;5.75;;
26598;SDS011;14240;51.064;16.612;2022-08-19T10:37:37;7.60;;;5.33;;
26598;SDS011;14240;51.064;16.612;2022-08-19T10:40:07;7.30;;;6.03;;
26598;SDS011;14240;51.064;16.612;2022-08-19T10:42:35;9.27;;;5.70;;
26598;SDS011;14240;51.064;16.612;2022-08-19T10:45:02;7.38;;;6.43;;
26598;SDS011;14240;51.064;16.612;2022-08-19T10:47:30;9.40;;;6.15;;
26598;SDS011;14240;51.064;16.612;2022-08-19T10:49:57;10.15;;;7.38;;
26598;SDS011;14240;51.064;16.612;2022-08-19T10:52:42;7.47;;;6.25;;
26598;SDS011;14240;51.064;16.612;2022-08-19T10:55:11;11.18;;;6.50;;
26598;SDS011;14240;51.064;16.612;2022-08-19T10:57:55;7.85;;;6.05;;
26598;SDS011;14240;51.064;16.612;2022-08-19T11:00:22;8.93;;;6.72;;
26598;SDS011;14240;51.064;16.612;2022-08-19T11:05:15;8.90;;;7.00;;
26598;SDS011;14240;51.064;16.612;2022-08-19T11:07:42;10.23;;;6.43;;
26598;SDS011;14240;51.064;16.612;2022-08-19T11:10:10;8.25;;;7.18;;
26598;SDS011;14240;51.064;16.612;2022-08-19T11:12:38;8.73;;;6.68;;
26598;SDS011;14240;51.064;16.612;2022-08-19T11:17:32;8.27;;;6.90;;
26598;SDS011;14240;51.064;16.612;2022-08-19T11:19:58;11.40;;;6.75;;
26598;SDS011;14240;51.064;16.612;2022-08-19T11:22:27;9.00;;;6.50;;
26598;SDS011;14240;51.064;16.612;2022-08-19T11:24:53;10.10;;;6.75;;
26598;SDS011;14240;51.064;16.612;2022-08-19T11:27:20;7.50;;;6.18;;
26598;SDS011;14240;51.064;16.612;2022-08-19T11:29:46;7.05;;;6.38;;
26598;SDS011;14240;51.064;16.612;2022-08-19T11:32:12;7.07;;;5.78;;
26598;SDS011;14240;51.064;16.612;2022-08-19T11:34:38;10.52;;;6.53;;
26598;SDS011;14240;51.064;16.612;2022-08-19T11:37:04;7.95;;;5.68;;
26598;SDS011;14240;51.064;16.612;2022-08-19T11:39:31;10.70;;;6.75;;
26598;SDS011;14240;51.064;16.612;2022-08-19T11:41:59;7.40;;;5.90;;
26598;SDS011;14240;51.064;16.612;2022-08-19T11:44:27;7.80;;;5.47;;
26598;SDS011;14240;51.064;16.612;2022-08-19T11:46:55;7.57;;;4.85;;
26598;SDS011;14240;51.064;16.612;2022-08-19T11:49:21;11.15;;;5.90;;
26598;SDS011;14240;51.064;16.612;2022-08-19T11:51:47;10.02;;;5.88;;
26598;SDS011;14240;51.064;16.612;2022-08-19T11:54:15;7.30;;;5.35;;
26598;SDS011;14240;51.064;16.612;2022-08-19T11:56:42;7.97;;;5.70;;
26598;SDS011;14240;51.064;16.612;2022-08-19T11:59:08;9.43;;;5.47;;
26598;SDS011;14240;51.064;16.612;2022-08-19T12:01:35;8.23;;;5.55;;
26598;SDS011;14240;51.064;16.612;2022-08-19T12:04:01;6.22;;;4.90;;
26598;SDS011;14240;51.064;16.612;2022-08-19T12:06:30;9.07;;;5.25;;
26598;SDS011;14240;51.064;16.612;2022-08-19T12:08:58;6.00;;;4.85;;
26598;SDS011;14240;51.064;16.612;2022-08-19T12:11:26;8.55;;;5.75;;
26598;SDS011;14240;51.064;16.612;2022-08-19T12:13:52;6.88;;;5.95;;
26598;SDS011;14240;51.064;16.612;2022-08-19T12:16:19;6.72;;;5.38;;
26598;SDS011;14240;51.064;16.612;2022-08-19T12:18:48;7.65;;;4.97;;
26598;SDS011;14240;51.064;16.612;2022-08-19T12:23:46;6.95;;;5.78;;
26598;SDS011;14240;51.064;16.612;2022-08-19T12:26:13;8.20;;;5.32;;
26598;SDS011;14240;51.064;16.612;2022-08-19T12:28:39;8.38;;;5.88;;
26598;SDS011;14240;51.064;16.612;2022-08-19T12:33:32;9.33;;;6.20;;
26598;SDS011;14240;51.064;16.612;2022-08-19T12:36:02;6.30;;;5.65;;
26598;SDS011;14240;51.064;16.612;2022-08-19T12:38:30;6.13;;;5.05;;
26598;SDS011;14240;51.064;16.612;2022-08-19T12:40:57;6.35;;;5.70;;
26598;SDS011;14240;51.064;16.612;2022-08-19T12:43:23;8.60;;;6.05;;
26598;SDS011;14240;51.064;16.612;2022-08-19T12:45:49;7.25;;;5.55;;
26598;SDS011;14240;51.064;16.612;2022-08-19T12:48:15;7.82;;;7.03;;
26598;SDS011;14240;51.064;16.612;2022-08-19T12:50:42;6.28;;;5.45;;
26598;SDS011;14240;51.064;16.612;2022-08-19T12:53:12;7.93;;;5.53;;
26598;SDS011;14240;51.064;16.612;2022-08-19T12:55:38;7.38;;;4.53;;
26598;SDS011;14240;51.064;16.612;2022-08-19T12:58:04;5.43;;;4.93;;
26598;SDS011;14240;51.064;16.612;2022-08-19T13:00:29;7.00;;;4.40;;
26598;SDS011;14240;51.064;16.612;2022-08-19T13:02:57;9.82;;;4.70;;
26598;SDS011;14240;51.064;16.612;2022-08-19T13:05:25;8.97;;;4.93;;
26598;SDS011;14240;51.064;16.612;2022-08-19T13:07:54;6.70;;;5.07;;
26598;SDS011;14240;51.064;16.612;2022-08-19T13:10:22;16.13;;;11.45;;
26598;SDS011;14240;51.064;16.612;2022-08-19T13:12:50;13.25;;;11.85;;
26598;SDS011;14240;51.064;16.612;2022-08-19T13:15:19;14.15;;;12.23;;
26598;SDS011;14240;51.064;16.612;2022-08-19T13:17:48;12.77;;;11.15;;
26598;SDS011;14240;51.064;16.612;2022-08-19T13:20:15;15.10;;;12.18;;
26598;SDS011;14240;51.064;16.612;2022-08-19T13:22:42;15.05;;;13.48;;
26598;SDS011;14240;51.064;16.612;2022-08-19T13:25:10;24.05;;;13.38;;
26598;SDS011;14240;51.064;16.612;2022-08-19T13:30:03;14.73;;;12.80;;
26598;SDS011;14240;51.064;16.612;2022-08-19T13:32:49;18.30;;;13.80;;
26598;SDS011;14240;51.064;16.612;2022-08-19T13:35:33;15.75;;;13.05;;
26598;SDS011;14240;51.064;16.612;2022-08-19T13:37:58;19.67;;;15.18;;
26598;SDS011;14240;51.064;16.612;2022-08-19T13:40:25;19.42;;;15.02;;
26598;SDS011;14240;51.064;16.612;2022-08-19T13:42:52;18.48;;;15.13;;
26598;SDS011;14240;51.064;16.612;2022-08-19T13:45:24;17.45;;;14.70;;
26598;SDS011;14240;51.064;16.612;2022-08-19T13:47:51;16.10;;;14.40;;
26598;SDS011;14240;51.064;16.612;2022-08-19T13:50:20;22.02;;;14.55;;
26598;SDS011;14240;51.064;16.612;2022-08-19T13:52:48;19.90;;;15.32;;
26598;SDS011;14240;51.064;16.612;2022-08-19T13:55:14;19.77;;;14.60;;
26598;SDS011;14240;51.064;16.612;2022-08-19T13:57:40;20.45;;;15.00;;
26598;SDS011;14240;51.064;16.612;2022-08-19T14:00:11;21.45;;;15.07;;
26598;SDS011;14240;51.064;16.612;2022-08-19T14:02:39;22.67;;;16.20;;
26598;SDS011;14240;51.064;16.612;2022-08-19T14:05:06;23.13;;;16.60;;
26598;SDS011;14240;51.064;16.612;2022-08-19T14:07:35;23.85;;;18.83;;
26598;SDS011;14240;51.064;16.612;2022-08-19T14:10:01;25.65;;;18.35;;
26598;SDS011;14240;51.064;16.612;2022-08-19T14:12:29;22.90;;;18.17;;
26598;SDS011;14240;51.064;16.612;2022-08-19T14:14:56;20.77;;;16.88;;
26598;SDS011;14240;51.064;16.612;2022-08-19T14:17:23;22.25;;;17.42;;
26598;SDS011;14240;51.064;16.612;2022-08-19T14:19:49;23.40;;;17.00;;
26598;SDS011;14240;51.064;16.612;2022-08-19T14:22:21;23.52;;;17.05;;
26598;SDS011;14240;51.064;16.612;2022-08-19T14:24:47;21.52;;;17.80;;
26598;SDS011;14240;51.064;16.612;2022-08-19T14:27:13;22.50;;;17.85;;
26598;SDS011;14240;51.064;16.612;2022-08-19T14:29:39;22.60;;;16.65;;
26598;SDS011;14240;51.064;16.612;2022-08-19T14:32:05;20.38;;;16.10;;
26598;SDS011;14240;51.064;16.612;2022-08-19T14:34:30;21.52;;;16.95;;
26598;SDS011;14240;51.064;16.612;2022-08-19T14:36:57;23.95;;;17.30;;
26598;SDS011;14240;51.064;16.612;2022-08-19T14:39:23;18.93;;;16.73;;
26598;SDS011;14240;51.064;16.612;2022-08-19T14:41:48;20.60;;;16.27;;
26598;SDS011;14240;51.064;16.612;2022-08-19T14:44:14;20.23;;;16.63;;
26598;SDS011;14240;51.064;16.612;2022-08-19T14:46:40;21.17;;;16.85;;
26598;SDS011;14240;51.064;16.612;2022-08-19T14:49:05;20.98;;;15.70;;
26598;SDS011;14240;51.064;16.612;2022-08-19T14:51:32;20.63;;;15.52;;
26598;SDS011;14240;51.064;16.612;2022-08-19T14:53:58;19.85;;;15.15;;
26598;SDS011;14240;51.064;16.612;2022-08-19T14:56:26;19.15;;;15.43;;
26598;SDS011;14240;51.064;16.612;2022-08-19T14:58:53;20.15;;;14.93;;
26598;SDS011;14240;51.064;16.612;2022-08-19T15:01:20;20.48;;;15.27;;
26598;SDS011;14240;51.064;16.612;2022-08-19T15:03:47;19.02;;;15.35;;